Bungo Princess — 3FXV8 — position and weather

sailwx.info

Track history (hours):
 
Tides and Currents Weather Stations Pressure Air Temp Water Temp Dewpoint Dewpoint Depression Visibility Wind Speed Wind Dir Waves Ship Positions

Bungo Princess

Last reported at 2014-Dec-19 09:04 UTC. Time now 2014-Dec-19 10:46 UTC.
Position N 22°18' E 114°04'.

Length 103 m; draft 6.5 m.

Type: Cargo ship. MMSI: 355091000.

Date/timePositionNaut miles runAvg speedWind from/ knotsBaromVisibWave heightAir tempDewpointWater temp
2014-Dec-19 09:04N 22°18' E 114°04'0 0.0
2014-Dec-19 08:22N 22°18' E 114°04'0 0.1
2014-Dec-19 07:22N 22°18' E 114°04'0 0.0
2014-Dec-19 06:07N 22°18' E 114°04'0 0.0
2014-Dec-19 05:19N 22°18' E 114°04'0 0.0
2014-Dec-19 04:22N 22°18' E 114°04'0 0.0
2014-Dec-19 03:22N 22°18' E 114°04'0 0.0
2014-Dec-19 02:28N 22°18' E 114°04'0 0.0
2014-Dec-19 01:22N 22°18' E 114°04'0 0.0
2014-Dec-18 17:25N 22°18' E 114°04'0 0.1
2014-Dec-18 16:28N 22°18' E 114°04'0 0.0
2014-Dec-18 15:19N 22°18' E 114°04'0 0.0
2014-Dec-18 14:28N 22°18' E 114°04'0 0.0
2014-Dec-18 10:32N 22°18' E 114°04'9 6.2
2014-Dec-18 09:09N 22°10' E 114°04'5 6.0
2014-Dec-18 08:15N 22°07' E 113°58'5 7.5
2014-Dec-18 07:32N 22°06' E 113°53'5 5.4
2014-Dec-18 06:33N 22°09' E 113°48'1212.5
2014-Dec-18 05:33N 22°21' E 113°48'10 0.4
2014-Dec-17 03:31N 22°30' E 113°45'1111.7
2014-Dec-17 02:33N 22°19' E 113°48'1110.9
2014-Dec-17 01:33N 22°09' E 113°48'6 6.4
2014-Dec-17 00:33N 22°04' E 113°52'2 1.9
2014-Dec-16 23:16N 22°05' E 113°55'0 0.0
2014-Dec-16 18:22N 22°05' E 113°55'0 0.0
2014-Dec-16 17:22N 22°05' E 113°55'0 0.0
2014-Dec-16 14:22N 22°05' E 113°55'0 0.0
2014-Dec-16 12:28N 22°05' E 113°55'0 0.0
2014-Dec-16 10:22N 22°05' E 113°55'0 0.1
2014-Dec-16 08:06N 22°05' E 113°55'18311.6
2014-Dec-15 16:15N 22°49' E 117°07'912.4
2014-Dec-15 15:33N 22°52' E 117°16'1612.1
2014-Dec-15 14:15N 23°01' E 117°30'2412.7
2014-Dec-15 12:22N 23°16' E 117°50'2512.4
2014-Dec-15 10:20N 23°32' E 118°12'912.1
2014-Dec-15 09:33N 23°39' E 118°19'1212.0
2014-Dec-15 08:33N 23°47' E 118°28'  
Track history (hours):
 
Tides and Currents Weather Stations Pressure Air Temp Water Temp Dewpoint Dewpoint Depression Visibility Wind Speed Wind Dir Waves Ship Positions

Bungo Princess

Last reported at 2014-Dec-19 09:04 UTC. Time now 2014-Dec-19 10:46 UTC.
Position N 22°18' E 114°04'.

Length 103 m; draft 6.5 m.

Type: Cargo ship. MMSI: 355091000.

Date/timePositionNaut miles runAvg speedWind from/ knotsBaromVisibWave heightAir tempDewpointWater temp
2014-Dec-19 09:04N 22°18' E 114°04'0 0.0
2014-Dec-19 08:22N 22°18' E 114°04'0 0.1
2014-Dec-19 07:22N 22°18' E 114°04'0 0.0
2014-Dec-19 06:07N 22°18' E 114°04'0 0.0
2014-Dec-19 05:19N 22°18' E 114°04'0 0.0
2014-Dec-19 04:22N 22°18' E 114°04'0 0.0
2014-Dec-19 03:22N 22°18' E 114°04'0 0.0
2014-Dec-19 02:28N 22°18' E 114°04'0 0.0
2014-Dec-19 01:22N 22°18' E 114°04'0 0.0
2014-Dec-18 17:25N 22°18' E 114°04'0 0.1
2014-Dec-18 16:28N 22°18' E 114°04'0 0.0
2014-Dec-18 15:19N 22°18' E 114°04'0 0.0
2014-Dec-18 14:28N 22°18' E 114°04'0 0.0
2014-Dec-18 10:32N 22°18' E 114°04'9 6.2
2014-Dec-18 09:09N 22°10' E 114°04'5 6.0
2014-Dec-18 08:15N 22°07' E 113°58'5 7.5
2014-Dec-18 07:32N 22°06' E 113°53'5 5.4
2014-Dec-18 06:33N 22°09' E 113°48'1212.5
2014-Dec-18 05:33N 22°21' E 113°48'10 0.4
2014-Dec-17 03:31N 22°30' E 113°45'1111.7
2014-Dec-17 02:33N 22°19' E 113°48'1110.9
2014-Dec-17 01:33N 22°09' E 113°48'6 6.4
2014-Dec-17 00:33N 22°04' E 113°52'2 1.9
2014-Dec-16 23:16N 22°05' E 113°55'0 0.0
2014-Dec-16 18:22N 22°05' E 113°55'0 0.0
2014-Dec-16 17:22N 22°05' E 113°55'0 0.0
2014-Dec-16 14:22N 22°05' E 113°55'0 0.0
2014-Dec-16 12:28N 22°05' E 113°55'0 0.0
2014-Dec-16 10:22N 22°05' E 113°55'0 0.1
2014-Dec-16 08:06N 22°05' E 113°55'18311.6
2014-Dec-15 16:15N 22°49' E 117°07'912.4
2014-Dec-15 15:33N 22°52' E 117°16'1612.1
2014-Dec-15 14:15N 23°01' E 117°30'2412.7
2014-Dec-15 12:22N 23°16' E 117°50'2512.4
2014-Dec-15 10:20N 23°32' E 118°12'912.1
2014-Dec-15 09:33N 23°39' E 118°19'1212.0
2014-Dec-15 08:33N 23°47' E 118°28'  

Dump ship's entire track history